Time;durP1;ratioP1;P1;durP2;ratioP2;P2;SDS_P1;SDS_P2;PMS_P1;PMS_P2;Temp;Humidity;BMP_temperature;BMP_pressure;BME280_temperature;BME280_humidity;BME280_pressure;Samples;Min_cycle;Max_cycle;Signal;HPM_P1;HPM_P2
2023/03/21 18:08:49;;;;;;;40.60;20.20;;;;;;;14.87;92.16;98929.94;4860844;27;7386708;-55
2023/03/21 18:11:38;;;;;;;32.97;20.50;;;;;;;14.85;92.33;98929.19;5105722;28;20761;-56
2023/03/21 18:14:14;;;;;;;36.50;21.27;;;;;;;14.88;93.91;98932.47;5101315;28;20753;-57
2023/03/21 18:16:49;;;;;;;34.73;20.80;;;;;;;14.89;94.43;98930.72;5103856;28;20686;-56
2023/03/21 18:19:28;;;;;;;42.93;22.23;;;;;;;14.97;94.54;98935.50;5106400;28;20677;-57
2023/03/21 18:22:02;;;;;;;31.50;21.30;;;;;;;15.01;94.43;98940.44;5102421;28;20293;-52
2023/03/21 18:24:34;;;;;;;36.00;21.07;;;;;;;15.10;94.19;98947.78;5104986;28;20240;-53
2023/03/21 18:27:17;;;;;;;34.07;20.93;;;;;;;15.10;94.41;98953.03;5105766;28;20309;-53
2023/03/21 18:29:54;;;;;;;39.60;21.63;;;;;;;15.08;93.65;98949.66;5105388;28;20265;-57
2023/03/21 18:32:38;;;;;;;34.87;21.20;;;;;;;15.21;94.49;98960.25;5105047;28;20693;-53
2023/03/21 18:35:18;;;;;;;39.90;21.90;;;;;;;15.17;95.14;98956.13;5105488;28;20226;-53
2023/03/21 18:38:01;;;;;;;32.77;21.43;;;;;;;15.23;94.67;98959.25;5105164;28;20214;-56
2023/03/21 18:40:45;;;;;;;39.77;22.87;;;;;;;15.19;96.53;98960.34;5104200;28;20313;-56
2023/03/21 18:43:18;;;;;;;35.23;23.33;;;;;;;15.16;97.56;98968.34;5104087;28;20433;-57
2023/03/21 18:45:56;;;;;;;32.93;23.63;;;;;;;15.23;98.94;98969.72;5104562;28;20255;-57
2023/03/21 18:48:38;;;;;;;41.80;24.90;;;;;;;15.23;100.00;98966.25;5102967;28;20210;-56
2023/03/21 18:51:08;;;;;;;39.80;27.03;;;;;;;15.12;100.00;98966.81;5106085;28;20705;-56
2023/03/21 18:54:10;;;;;;;47.90;28.87;;;;;;;14.98;100.00;98973.75;5106289;28;20201;-54
2023/03/21 19:00:25;;;;;;;46.63;27.97;;;;;;;14.90;100.00;98969.78;5105219;28;20207;-54
2023/03/21 19:08:57;;;;;;;37.83;25.37;;;;;;;14.82;100.00;98978.97;5064282;28;20227;-55
2023/03/21 19:14:21;;;;;;;37.97;25.27;;;;;;;14.65;100.00;98986.91;5062475;28;20208;-56
2023/03/21 19:17:01;;;;;;;42.77;27.37;;;;;;;14.64;100.00;98985.22;5061331;28;20192;-58
2023/03/21 19:19:41;;;;;;;42.97;28.87;;;;;;;14.55;100.00;98973.50;5049126;28;20295;-56
2023/03/21 19:22:28;;;;;;;44.10;27.73;;;;;;;14.52;100.00;98976.25;5049816;28;20228;-57
2023/03/21 19:25:09;;;;;;;44.90;27.43;;;;;;;14.60;100.00;98968.00;5049095;28;20212;-57
2023/03/21 19:28:04;;;;;;;42.37;27.63;;;;;;;14.57;100.00;98968.16;5048984;28;20322;-57
2023/03/21 19:30:43;;;;;;;40.80;25.57;;;;;;;14.58;100.00;98975.91;5048009;28;20219;-54
2023/03/21 19:36:45;;;;;;;34.73;25.37;;;;;;;14.44;100.00;98991.50;5044934;28;20235;-53
2023/03/21 19:39:36;;;;;;;33.27;24.40;;;;;;;14.40;100.00;99008.25;5048098;28;20305;-54
2023/03/21 19:42:05;;;;;;;35.30;24.43;;;;;;;14.38;100.00;99005.69;5046190;28;20212;-54
2023/03/21 19:44:47;;;;;;;34.03;23.90;;;;;;;14.30;100.00;99015.69;5047810;28;20212;-53
2023/03/21 19:47:37;;;;;;;33.83;23.67;;;;;;;14.34;100.00;99016.34;5046795;28;20233;-54
2023/03/21 19:53:18;;;;;;;35.13;23.90;;;;;;;14.26;100.00;99021.97;5047343;28;20227;-57
2023/03/21 19:56:00;;;;;;;37.73;23.37;;;;;;;14.18;100.00;99019.78;5046789;28;20216;-56
2023/03/21 19:58:46;;;;;;;34.30;24.10;;;;;;;14.05;100.00;99016.09;5047445;28;20247;-56
2023/03/21 20:01:13;;;;;;;41.37;25.07;;;;;;;14.12;100.00;99004.41;5047892;28;20232;-57
2023/03/21 20:03:48;;;;;;;33.70;24.63;;;;;;;14.21;100.00;99010.94;5046327;28;20220;-54
2023/03/21 20:06:24;;;;;;;34.03;23.80;;;;;;;14.23;100.00;99016.06;5051982;28;20220;-54
2023/03/21 20:08:56;;;;;;;35.70;23.07;;;;;;;14.20;100.00;99017.09;5088104;28;20215;-56
2023/03/21 20:11:28;;;;;;;30.87;21.53;;;;;;;14.14;100.00;99002.56;5089157;28;20215;-56
2023/03/21 20:13:58;;;;;;;31.17;22.07;;;;;;;14.09;100.00;99004.59;5089733;28;20721;-57
2023/03/21 20:16:27;;;;;;;32.50;23.20;;;;;;;14.02;100.00;99010.19;5085869;28;20227;-56
2023/03/21 20:18:57;;;;;;;29.33;21.57;;;;;;;14.06;100.00;99014.31;5089441;28;20726;-57
2023/03/21 20:21:34;;;;;;;26.97;19.40;;;;;;;14.04;100.00;99013.56;5088871;28;20792;-57
2023/03/21 20:24:05;;;;;;;22.97;17.97;;;;;;;13.97;100.00;99020.00;5089509;28;20215;-58
2023/03/21 20:26:38;;;;;;;26.53;20.03;;;;;;;13.88;100.00;99021.31;5088941;28;20225;-56
2023/03/21 20:29:08;;;;;;;70.00;45.47;;;;;;;13.95;100.00;99016.63;5086539;28;20215;-56
2023/03/21 20:35:05;;;;;;;32.27;24.17;;;;;;;13.76;100.00;99009.75;5085894;28;20226;-56
2023/03/21 20:41:04;;;;;;;33.13;21.60;;;;;;;13.78;100.00;99010.47;5086709;28;20222;-56
2023/03/21 20:43:46;;;;;;;31.47;21.97;;;;;;;13.64;100.00;99002.53;5086813;28;20215;-56
2023/03/21 20:46:26;;;;;;;26.00;20.63;;;;;;;13.71;100.00;99003.06;5087606;28;20215;-56
2023/03/21 20:49:18;;;;;;;28.47;20.73;;;;;;;13.71;100.00;99009.13;5086883;28;20313;-56
2023/03/21 20:52:05;;;;;;;28.33;18.87;;;;;;;13.78;100.00;99014.84;5088231;28;20319;-56
2023/03/21 20:54:37;;;;;;;28.17;19.50;;;;;;;13.72;100.00;99010.81;5088294;28;20218;-56
2023/03/21 20:57:20;;;;;;;30.23;20.07;;;;;;;13.68;100.00;99008.41;5085754;28;20280;-56
2023/03/21 20:59:49;;;;;;;29.03;20.13;;;;;;;13.71;100.00;99009.13;5085271;28;20745;-54
2023/03/21 21:02:19;;;;;;;25.17;19.17;;;;;;;13.72;100.00;99008.19;5087751;28;20298;-56
2023/03/21 21:05:11;;;;;;;23.57;17.83;;;;;;;13.70;100.00;99007.41;5085556;28;20219;-57
2023/03/21 21:07:53;;;;;;;24.27;18.47;;;;;;;13.60;100.00;99000.97;5084676;28;20675;-54
2023/03/21 21:10:51;;;;;;;25.10;18.13;;;;;;;13.63;100.00;99019.09;5087267;28;20718;-53
2023/03/21 21:13:41;;;;;;;28.57;19.43;;;;;;;13.54;100.00;99022.16;5085293;28;20287;-54
2023/03/21 21:16:41;;;;;;;24.50;18.97;;;;;;;13.62;100.00;99025.22;5086463;28;20811;-56
2023/03/21 21:22:39;;;;;;;26.10;19.40;;;;;;;13.53;100.00;99022.22;5085956;28;20203;-55
2023/03/21 21:28:27;;;;;;;26.73;20.50;;;;;;;13.42;100.00;99033.16;5088182;28;20696;-53
2023/03/21 21:43:11;;;;;;;29.37;20.73;;;;;;;13.48;100.00;99025.03;5083828;28;20747;-56
2023/03/21 21:51:49;;;;;;;29.70;20.87;;;;;;;13.56;100.00;99015.06;5083888;28;20199;-56
2023/03/21 21:54:50;;;;;;;26.87;20.27;;;;;;;13.59;100.00;99008.88;5088090;28;20686;-56
2023/03/21 21:57:36;;;;;;;35.87;21.73;;;;;;;13.67;100.00;99023.22;5087643;28;20198;-56
2023/03/21 22:00:33;;;;;;;29.40;21.50;;;;;;;13.67;100.00;99030.19;5086001;28;20245;-56
2023/03/21 22:03:39;;;;;;;28.13;21.63;;;;;;;13.71;100.00;99023.91;5085590;28;20245;-56
2023/03/21 22:06:46;;;;;;;30.63;21.40;;;;;;;13.76;100.00;99019.34;5086403;28;20195;-53
2023/03/21 22:09:33;;;;;;;31.67;21.70;;;;;;;13.72;100.00;99029.06;5046665;28;20262;-53
2023/03/21 22:12:31;;;;;;;34.73;20.73;;;;;;;13.60;100.00;99027.06;5048064;28;20196;-55
2023/03/21 22:15:31;;;;;;;29.17;20.60;;;;;;;13.48;100.00;99032.84;5047712;28;20193;-55
2023/03/21 22:18:31;;;;;;;27.93;18.87;;;;;;;13.42;100.00;99028.81;5047997;28;20193;-56
2023/03/21 22:24:25;;;;;;;29.63;19.60;;;;;;;13.29;100.00;99030.31;5046547;28;20200;-53
2023/03/21 22:27:24;;;;;;;29.87;21.33;;;;;;;13.29;100.00;99024.25;5046906;28;20622;-53
2023/03/21 22:29:55;;;;;;;27.90;19.80;;;;;;;13.34;100.00;99015.25;5045784;28;20566;-54
2023/03/21 22:36:05;;;;;;;31.90;20.13;;;;;;;13.26;100.00;99026.97;5044067;28;20204;-53
2023/03/21 22:44:48;;;;;;;33.40;20.30;;;;;;;13.07;100.00;99030.44;5042704;28;20189;-53
2023/03/21 22:57:12;;;;;;;31.70;21.23;;;;;;;12.96;100.00;99032.69;5049082;28;20200;-54
2023/03/21 22:59:57;;;;;;;33.23;22.83;;;;;;;12.91;100.00;99032.03;5049832;28;20726;-57
2023/03/21 23:03:00;;;;;;;36.60;21.27;;;;;;;12.82;100.00;99032.47;5049018;28;20242;-54
2023/03/21 23:05:48;;;;;;;33.73;19.63;;;;;;;12.68;100.00;99040.06;5048959;28;20239;-56
2023/03/21 23:09:05;;;;;;;41.43;21.57;;;;;;;12.50;100.00;99046.94;5081815;28;20735;-56
2023/03/21 23:12:15;;;;;;;37.20;21.00;;;;;;;12.34;100.00;99038.09;5090177;28;20195;-56
2023/03/21 23:17:48;;;;;;;35.50;21.73;;;;;;;12.16;100.00;99046.69;5088683;28;20596;-56
2023/03/21 23:20:38;;;;;;;38.17;20.50;;;;;;;12.12;100.00;99035.56;5089917;28;20737;-56
2023/03/21 23:23:11;;;;;;;39.73;21.93;;;;;;;12.13;100.00;99042.47;5089270;28;20192;-57
2023/03/21 23:26:16;;;;;;;37.03;23.57;;;;;;;12.07;100.00;99024.53;5090852;28;20198;-55
2023/03/21 23:29:00;;;;;;;39.67;21.87;;;;;;;12.11;100.00;99030.44;5090174;28;20246;-56
2023/03/21 23:31:48;;;;;;;49.87;23.60;;;;;;;12.01;100.00;99024.78;5086075;28;20213;-56
2023/03/21 23:35:03;;;;;;;38.10;22.17;;;;;;;12.02;100.00;99029.06;5086647;28;20223;-56
2023/03/21 23:41:11;;;;;;;38.27;22.50;;;;;;;11.91;100.00;99028.69;5089950;28;20191;-56
2023/03/21 23:44:25;;;;;;;35.77;22.70;;;;;;;11.83;100.00;99020.38;5090237;28;20198;-55
2023/03/21 23:47:25;;;;;;;45.93;24.40;;;;;;;11.84;100.00;99019.47;5089198;28;20278;-55
2023/03/21 23:50:16;;;;;;;39.13;22.67;;;;;;;11.87;100.00;99011.50;5089220;28;20674;-55
2023/03/21 23:53:16;;;;;;;40.00;23.50;;;;;;;11.78;100.00;99019.69;5087812;28;20634;-56
2023/03/21 23:56:09;;;;;;;41.00;22.77;;;;;;;11.80;100.00;99020.47;5086164;28;20274;-56
2023/03/21 23:59:07;;;;;;;39.33;22.10;;;;;;;11.81;100.00;99014.38;5089475;28;20224;-53
